Time;durP1;ratioP1;P1;durP2;ratioP2;P2;SDS_P1;SDS_P2;PMS_P1;PMS_P2;Temp;Humidity;BMP_temperature;BMP_pressure;BME280_temperature;BME280_humidity;BME280_pressure;Samples;Min_cycle;Max_cycle;Signal;HPM_P1;HPM_P2
2021/06/21 00:02:21;;;;;;;8.73;5.20;;;;;;;19.25;63.13;100541.53;5060014;28;20405;-66
2021/06/21 00:04:47;;;;;;;9.40;6.30;;;;;;;18.87;64.57;100537.34;5046150;28;20174;-65
2021/06/21 00:07:12;;;;;;;17.67;10.23;;;;;;;19.08;63.86;100536.78;5040129;28;20424;-65
2021/06/21 00:09:39;;;;;;;13.43;5.67;;;;;;;18.76;64.52;100530.59;5057988;28;20200;-65
2021/06/21 00:12:05;;;;;;;9.03;5.60;;;;;;;18.92;63.97;100531.06;5059822;28;20538;-65
2021/06/21 00:14:31;;;;;;;7.50;5.80;;;;;;;18.98;63.72;100519.44;5060417;28;20379;-65
2021/06/21 00:16:56;;;;;;;9.47;6.83;;;;;;;19.38;62.40;100525.34;5059748;28;20232;-64
2021/06/21 00:19:21;;;;;;;6.17;5.00;;;;;;;18.96;63.88;100516.00;5043124;28;20186;-65
2021/06/21 00:21:47;;;;;;;7.97;4.83;;;;;;;19.23;63.27;100516.06;5040230;28;20177;-65
2021/06/21 00:24:12;;;;;;;9.00;7.50;;;;;;;18.81;64.57;100518.13;5057912;28;20193;-65
2021/06/21 00:26:38;;;;;;;6.00;5.20;;;;;;;19.23;63.46;100526.66;5059981;28;20165;-65
2021/06/21 00:29:03;;;;;;;9.30;6.80;;;;;;;18.57;65.19;100526.72;5059189;28;20510;-65
2021/06/21 00:31:28;;;;;;;6.97;5.13;;;;;;;18.89;64.45;100528.50;5057239;28;20181;-65
2021/06/21 00:33:54;;;;;;;8.30;5.80;;;;;;;18.91;64.00;100526.69;5059861;28;20181;-65
2021/06/21 00:36:19;;;;;;;10.10;5.17;;;;;;;18.88;64.09;100531.16;5056886;28;20209;-64
2021/06/21 00:38:44;;;;;;;10.97;5.67;;;;;;;18.92;63.75;100538.13;5039655;28;20221;-64
2021/06/21 00:41:10;;;;;;;8.07;5.57;;;;;;;18.79;64.10;100540.19;5040268;28;20170;-64
2021/06/21 00:43:35;;;;;;;7.87;5.83;;;;;;;18.43;64.31;100535.88;5039729;28;20175;-64
2021/06/21 00:46:01;;;;;;;10.13;5.83;;;;;;;18.31;65.18;100538.84;5039772;28;20174;-64
2021/06/21 00:48:26;;;;;;;8.03;5.23;;;;;;;18.59;64.43;100540.75;5039286;28;20166;-64
2021/06/21 00:50:52;;;;;;;7.40;5.40;;;;;;;18.75;63.86;100547.34;5039962;28;20488;-64
2021/06/21 00:53:19;;;;;;;6.30;5.53;;;;;;;18.79;62.97;100550.75;5038735;28;20426;-64
2021/06/21 00:55:45;;;;;;;7.70;5.43;;;;;;;18.41;64.15;100550.88;5039914;28;20236;-64
2021/06/21 00:58:11;;;;;;;11.20;6.10;;;;;;;18.12;64.79;100551.63;5043226;28;20844;-63
2021/06/21 01:00:36;;;;;;;5.93;5.10;;;;;;;18.72;63.48;100551.84;5058684;28;20413;-64
2021/06/21 01:03:04;;;;;;;5.83;5.33;;;;;;;18.29;65.06;100546.81;5059556;28;20212;-64
2021/06/21 01:05:34;;;;;;;6.70;5.60;;;;;;;18.54;63.73;100540.00;5059200;28;20173;-64
2021/06/21 01:07:59;;;;;;;10.93;7.00;;;;;;;18.49;64.00;100527.78;5045232;28;20453;-64
2021/06/21 01:10:28;;;;;;;7.43;6.20;;;;;;;18.46;63.73;100521.75;5040656;28;20535;-67
2021/06/21 01:13:10;;;;;;;7.97;5.53;;;;;;;18.51;63.60;100525.97;5038009;28;20187;-65
2021/06/21 01:15:40;;;;;;;10.70;6.60;;;;;;;18.52;63.52;100518.91;5038442;28;20409;-63
2021/06/21 01:18:10;;;;;;;6.40;5.70;;;;;;;18.86;62.40;100515.34;5039100;28;20435;-64
2021/06/21 01:21:06;;;;;;;6.10;5.50;;;;;;;18.56;63.62;100506.50;5038146;28;20419;-64
2021/06/21 01:23:41;;;;;;;6.63;5.97;;;;;;;18.70;63.14;100499.09;5038692;28;20644;-63
2021/06/21 01:26:16;;;;;;;7.50;6.33;;;;;;;18.42;63.44;100489.28;5039031;28;20408;-65
2021/06/21 01:28:57;;;;;;;8.53;5.20;;;;;;;18.38;63.66;100484.97;5041186;28;20831;-64
2021/06/21 01:31:28;;;;;;;6.77;5.87;;;;;;;18.34;63.75;100480.69;5058419;28;20448;-64
2021/06/21 01:33:54;;;;;;;6.83;5.83;;;;;;;18.22;64.30;100459.91;5037928;28;20409;-64
2021/06/21 01:36:20;;;;;;;7.60;5.70;;;;;;;18.31;64.31;100457.03;5037948;28;20475;-64
2021/06/21 01:39:05;;;;;;;9.40;5.67;;;;;;;18.29;63.59;100464.13;5038796;28;20257;-64
2021/06/21 01:41:33;;;;;;;8.47;6.80;;;;;;;18.02;64.72;100463.94;5049758;28;20237;-65
2021/06/21 01:43:59;;;;;;;6.77;5.40;;;;;;;17.94;65.21;100465.91;5037563;28;20455;-64
2021/06/21 01:46:33;;;;;;;7.27;5.40;;;;;;;18.24;63.90;100468.63;5037793;28;20468;-65
2021/06/21 01:49:02;;;;;;;11.87;5.63;;;;;;;18.03;64.86;100459.53;5038259;28;20216;-65
2021/06/21 01:51:32;;;;;;;7.60;6.23;;;;;;;18.20;64.52;100467.00;5037658;28;20395;-64
2021/06/21 01:53:59;;;;;;;7.03;5.83;;;;;;;18.13;64.62;100446.06;5037798;28;20434;-64
2021/06/21 01:56:31;;;;;;;8.83;6.00;;;;;;;18.34;63.64;100444.59;5038178;28;20482;-64
2021/06/21 01:58:57;;;;;;;7.40;5.90;;;;;;;18.25;63.87;100449.28;5053556;28;20658;-65
2021/06/21 02:01:23;;;;;;;8.00;5.50;;;;;;;18.55;63.21;100442.31;5055892;28;20410;-65
2021/06/21 02:03:51;;;;;;;6.83;5.63;;;;;;;18.05;64.63;100457.72;5058349;28;20400;-65
2021/06/21 02:06:17;;;;;;;6.63;6.00;;;;;;;18.47;63.56;100454.84;5057510;28;20393;-66
2021/06/21 02:08:48;;;;;;;5.97;5.37;;;;;;;17.95;65.28;100457.09;5042813;28;20491;-65
2021/06/21 02:11:14;;;;;;;7.17;6.33;;;;;;;17.89;65.06;100450.16;5046900;28;20800;-65
2021/06/21 02:13:40;;;;;;;6.90;6.30;;;;;;;17.58;66.53;100447.44;5057862;28;20416;-66
2021/06/21 02:16:06;;;;;;;6.57;5.97;;;;;;;18.40;63.76;100446.22;5044793;28;20479;-65
2021/06/21 02:18:32;;;;;;;8.87;6.80;;;;;;;18.23;64.39;100445.81;5038260;28;20435;-63
2021/06/21 02:20:58;;;;;;;7.07;6.37;;;;;;;18.14;64.47;100455.72;5036859;28;20276;-63
2021/06/21 02:23:24;;;;;;;9.43;6.70;;;;;;;18.00;64.72;100447.28;5038324;28;20651;-64
2021/06/21 02:25:51;;;;;;;7.20;6.40;;;;;;;18.26;64.18;100437.81;5057113;28;20215;-65
2021/06/21 02:28:18;;;;;;;9.80;6.50;;;;;;;18.00;65.05;100434.09;5046419;28;20708;-65
2021/06/21 02:30:45;;;;;;;11.57;7.00;;;;;;;18.21;63.99;100435.28;5037496;28;20845;-65
2021/06/21 02:33:12;;;;;;;8.47;7.27;;;;;;;18.05;64.75;100431.34;5037033;28;20424;-65
2021/06/21 02:35:38;;;;;;;8.73;7.10;;;;;;;18.01;65.30;100425.28;5037156;28;20920;-65
2021/06/21 02:38:03;;;;;;;8.57;7.20;;;;;;;17.97;65.33;100413.09;5053655;28;20468;-65
2021/06/21 02:40:28;;;;;;;7.30;6.60;;;;;;;18.17;64.80;100407.25;5056972;28;20204;-65
2021/06/21 02:42:53;;;;;;;8.20;7.40;;;;;;;17.62;66.24;100417.47;5056990;28;20500;-65
2021/06/21 02:45:19;;;;;;;10.20;6.90;;;;;;;17.75;66.13;100424.16;5037010;28;20308;-65
2021/06/21 02:47:45;;;;;;;10.33;7.60;;;;;;;17.36;68.15;100429.50;5037501;28;20238;-65
2021/06/21 02:50:10;;;;;;;8.70;7.77;;;;;;;17.62;68.27;100439.41;5023076;28;20586;-65
2021/06/21 02:52:51;;;;;;;8.90;7.20;;;;;;;17.76;68.21;100438.19;5037604;28;20528;-65
2021/06/21 02:55:38;;;;;;;7.97;6.87;;;;;;;16.86;70.22;100447.25;5041248;28;20242;-65
2021/06/21 02:58:29;;;;;;;8.30;7.50;;;;;;;17.55;68.94;100458.91;5050001;28;20457;-65
2021/06/21 03:00:57;;;;;;;8.50;7.37;;;;;;;17.74;68.13;100453.16;5063416;28;20391;-65
2021/06/21 03:03:31;;;;;;;10.37;8.00;;;;;;;16.37;72.61;100473.63;5063285;28;20474;-65
2021/06/21 03:05:57;;;;;;;8.00;7.23;;;;;;;15.94;74.29;100477.91;5064100;28;20439;-66
2021/06/21 03:08:22;;;;;;;10.67;8.10;;;;;;;16.86;72.38;100470.94;5059845;28;20451;-66
2021/06/21 03:10:48;;;;;;;9.10;8.27;;;;;;;16.94;70.84;100476.94;5046966;28;20464;-65
2021/06/21 03:13:16;;;;;;;8.73;7.87;;;;;;;17.04;71.84;100475.84;5049241;28;20186;-65
2021/06/21 03:15:42;;;;;;;9.23;8.20;;;;;;;17.51;70.09;100471.28;5042979;28;20478;-64
2021/06/21 03:18:08;;;;;;;9.63;8.40;;;;;;;16.53;73.82;100460.19;5043468;28;20538;-66
2021/06/21 03:20:33;;;;;;;11.63;8.90;;;;;;;16.38;74.96;100464.00;5043289;28;20214;-65
2021/06/21 03:23:01;;;;;;;12.10;8.90;;;;;;;16.84;73.97;100448.16;5043889;28;20205;-65
2021/06/21 03:25:31;;;;;;;11.00;8.87;;;;;;;17.42;71.50;100442.50;5045310;28;20178;-65
2021/06/21 03:27:58;;;;;;;9.70;8.70;;;;;;;17.32;71.33;100433.09;5044290;28;20849;-65
2021/06/21 03:30:24;;;;;;;9.77;8.83;;;;;;;17.73;69.91;100428.59;5044056;28;20788;-65
2021/06/21 03:32:52;;;;;;;9.47;8.47;;;;;;;17.71;70.42;100432.16;5044224;28;20837;-65
2021/06/21 03:35:18;;;;;;;11.67;10.43;;;;;;;17.61;70.30;100428.91;5045096;28;20505;-65
2021/06/21 03:37:43;;;;;;;10.37;9.10;;;;;;;16.79;72.11;100439.50;5043785;28;20435;-66
2021/06/21 03:40:10;;;;;;;8.93;8.17;;;;;;;17.45;71.65;100439.78;5044155;28;20505;-65
2021/06/21 03:42:36;;;;;;;9.83;8.57;;;;;;;16.71;73.43;100433.53;5063415;28;20188;-65
2021/06/21 03:45:02;;;;;;;10.23;9.17;;;;;;;16.50;73.86;100430.41;5053778;28;20448;-64
2021/06/21 03:47:27;;;;;;;11.03;9.97;;;;;;;17.04;73.02;100430.22;5043542;28;20162;-64
2021/06/21 03:49:53;;;;;;;10.53;9.43;;;;;;;17.66;70.94;100424.38;5043063;28;20381;-64
2021/06/21 03:52:19;;;;;;;9.80;8.90;;;;;;;17.43;70.97;100431.06;5043764;28;20249;-67
2021/06/21 03:54:45;;;;;;;11.80;10.60;;;;;;;17.60;69.83;100413.97;5047051;28;20208;-65
2021/06/21 03:57:11;;;;;;;10.83;9.70;;;;;;;17.71;70.84;100411.06;5063306;28;20449;-67
2021/06/21 03:59:36;;;;;;;12.10;9.03;;;;;;;17.66;71.29;100408.56;5063846;28;20177;-65
2021/06/21 04:02:02;;;;;;;10.17;9.07;;;;;;;17.60;70.26;100403.44;5047302;28;20445;-66
2021/06/21 04:04:28;;;;;;;11.07;10.07;;;;;;;17.44;71.35;100406.47;5043704;28;20170;-66
2021/06/21 04:06:53;;;;;;;10.50;9.10;;;;;;;17.52;71.86;100406.25;5041549;28;20521;-65
2021/06/21 04:09:19;;;;;;;16.00;12.97;;;;;;;17.70;71.07;100404.94;5041035;28;20197;-64
2021/06/21 04:11:45;;;;;;;11.63;9.70;;;;;;;17.81;71.01;100400.25;5050510;28;20471;-65
2021/06/21 04:14:12;;;;;;;9.30;8.40;;;;;;;17.26;72.56;100401.63;5060035;28;20195;-65
2021/06/21 04:16:38;;;;;;;10.50;8.80;;;;;;;17.73;71.88;100391.69;5060722;28;20166;-65
2021/06/21 04:19:03;;;;;;;10.87;9.77;;;;;;;17.36;72.44;100387.34;5060373;28;20411;-65
2021/06/21 04:21:28;;;;;;;15.60;14.00;;;;;;;17.44;72.40;100381.84;5045689;28;20190;-66
2021/06/21 04:23:55;;;;;;;11.20;10.07;;;;;;;17.17;73.68;100389.53;5040182;28;20600;-65
2021/06/21 04:26:20;;;;;;;9.20;8.30;;;;;;;17.28;72.87;100391.94;5040314;28;20170;-65
2021/06/21 04:28:46;;;;;;;8.50;7.43;;;;;;;17.14;73.93;100398.38;5040758;28;20853;-65
2021/06/21 04:31:11;;;;;;;12.47;10.80;;;;;;;17.09;73.50;100394.97;5042014;28;20177;-65
2021/06/21 04:33:37;;;;;;;9.30;8.47;;;;;;;16.35;76.37;100388.63;5056074;28;20200;-65
2021/06/21 04:36:02;;;;;;;9.40;8.50;;;;;;;17.24;73.22;100366.53;5059020;28;20237;-66
2021/06/21 04:38:27;;;;;;;9.03;8.13;;;;;;;17.72;71.89;100357.44;5058804;28;20217;-65
2021/06/21 04:40:52;;;;;;;11.47;9.43;;;;;;;17.54;72.02;100350.91;5045136;28;20204;-64
2021/06/21 04:43:19;;;;;;;10.00;9.10;;;;;;;17.58;72.22;100361.31;5039645;28;20431;-64
2021/06/21 04:45:45;;;;;;;7.73;7.03;;;;;;;17.45;72.79;100389.72;5039994;28;20262;-65
2021/06/21 04:48:10;;;;;;;7.53;6.87;;;;;;;16.39;76.41;100399.97;5038711;28;20463;-65
2021/06/21 04:50:37;;;;;;;10.40;7.47;;;;;;;16.55;76.49;100398.75;5047838;28;20192;-65
2021/06/21 04:53:02;;;;;;;7.20;6.60;;;;;;;16.71;75.20;100386.13;5079766;28;20184;-66
2021/06/21 04:55:28;;;;;;;11.70;9.27;;;;;;;17.50;73.25;100387.84;5064784;28;20467;-65
2021/06/21 04:57:53;;;;;;;8.10;7.30;;;;;;;17.74;71.60;100380.25;5039293;28;20218;-65
2021/06/21 05:00:20;;;;;;;7.93;6.83;;;;;;;17.23;73.34;100372.72;5039515;28;20230;-66
2021/06/21 05:02:47;;;;;;;7.50;6.90;;;;;;;17.02;73.87;100372.31;5039130;28;20236;-66
2021/06/21 05:05:13;;;;;;;8.47;7.60;;;;;;;17.71;71.80;100366.25;5041039;28;20446;-65
2021/06/21 05:07:40;;;;;;;7.40;6.80;;;;;;;16.93;73.84;100378.66;5047992;28;20402;-65
2021/06/21 05:10:07;;;;;;;7.13;6.53;;;;;;;17.66;71.89;100367.25;5042544;28;20411;-65
2021/06/21 05:12:32;;;;;;;7.67;6.70;;;;;;;16.84;74.48;100378.81;5037993;28;20391;-66
2021/06/21 05:14:58;;;;;;;6.57;6.07;;;;;;;16.77;75.28;100372.81;5039458;28;20387;-65
2021/06/21 05:17:23;;;;;;;6.47;5.87;;;;;;;16.53;76.88;100373.38;5038211;28;20260;-65
2021/06/21 05:19:48;;;;;;;7.70;6.90;;;;;;;16.83;76.06;100369.19;5041158;28;20170;-65
2021/06/21 05:22:14;;;;;;;7.87;7.07;;;;;;;17.61;73.12;100366.50;5046257;28;20428;-65
2021/06/21 05:24:39;;;;;;;7.33;6.40;;;;;;;16.62;76.94;100365.28;5056955;28;20186;-65
2021/06/21 05:27:05;;;;;;;6.33;5.80;;;;;;;16.67;76.70;100368.69;5059122;28;20216;-65
2021/06/21 05:29:30;;;;;;;6.60;5.77;;;;;;;16.75;75.88;100373.75;5059057;28;20174;-65
2021/06/21 05:31:56;;;;;;;6.83;6.07;;;;;;;16.39;77.67;100364.00;5058528;28;20426;-65
2021/06/21 05:34:21;;;;;;;5.80;5.30;;;;;;;16.35;77.25;100354.44;5058810;28;20407;-66
2021/06/21 05:36:47;;;;;;;8.03;7.03;;;;;;;17.36;74.71;100331.13;5042769;28;20238;-65
2021/06/21 05:39:12;;;;;;;7.40;6.70;;;;;;;17.63;73.20;100332.19;5038854;28;20185;-66
2021/06/21 05:41:37;;;;;;;6.77;6.20;;;;;;;18.14;71.79;100307.97;5038930;28;20252;-65
2021/06/21 05:44:03;;;;;;;6.60;6.10;;;;;;;17.71;72.62;100301.25;5038613;28;20260;-65
2021/06/21 05:46:28;;;;;;;8.10;7.40;;;;;;;17.78;73.15;100297.50;5050912;28;20309;-64
2021/06/21 05:48:54;;;;;;;6.80;6.17;;;;;;;18.15;71.29;100285.09;5045260;28;20184;-65
2021/06/21 05:51:19;;;;;;;7.43;6.73;;;;;;;17.76;72.34;100278.22;5053217;28;20208;-65
2021/06/21 05:53:44;;;;;;;6.60;6.10;;;;;;;17.85;72.45;100277.97;5047133;28;20189;-65
2021/06/21 05:56:10;;;;;;;6.97;5.80;;;;;;;17.81;71.55;100281.59;5042158;28;20269;-65
2021/06/21 05:58:35;;;;;;;7.00;6.50;;;;;;;17.74;72.82;100285.31;5038294;28;20208;-65
2021/06/21 06:01:00;;;;;;;6.10;5.60;;;;;;;18.26;71.59;100283.00;5046901;28;20177;-65
2021/06/21 06:03:26;;;;;;;7.30;5.93;;;;;;;17.73;72.99;100286.22;5068324;28;20541;-66
2021/06/21 06:05:51;;;;;;;6.27;5.67;;;;;;;18.21;71.48;100286.69;5058071;28;20539;-66
2021/06/21 06:08:17;;;;;;;6.90;5.77;;;;;;;18.01;71.52;100265.25;5054024;28;20256;-65
2021/06/21 06:10:42;;;;;;;6.63;6.13;;;;;;;18.03;72.01;100275.75;5052128;28;20211;-65
2021/06/21 06:13:08;;;;;;;7.67;6.90;;;;;;;18.00;71.68;100289.88;5050690;28;20764;-67
2021/06/21 06:15:33;;;;;;;7.40;4.80;;;;;;;18.85;70.28;100274.13;5046306;28;20188;-69
2021/06/21 06:17:59;;;;;;;4.60;4.20;;;;;;;19.33;66.06;100261.16;5043763;28;20198;-69
2021/06/21 06:20:24;;;;;;;4.40;4.00;;;;;;;19.66;65.17;100264.41;5071166;28;20263;-69
2021/06/21 06:22:49;;;;;;;4.40;3.80;;;;;;;20.35;63.06;100257.50;5071695;28;20444;-66
2021/06/21 06:25:16;;;;;;;3.67;3.37;;;;;;;20.69;61.61;100248.25;5053234;28;20184;-66
2021/06/21 06:27:41;;;;;;;4.80;4.07;;;;;;;20.12;62.71;100243.34;5045750;28;20561;-67
2021/06/21 06:30:08;;;;;;;3.50;3.20;;;;;;;21.03;60.15;100239.75;5043325;28;20493;-65
2021/06/21 06:32:35;;;;;;;3.50;3.20;;;;;;;20.10;62.83;100253.13;5049354;28;20172;-66
2021/06/21 06:35:01;;;;;;;3.40;3.10;;;;;;;21.26;60.00;100251.19;5040766;28;20827;-65
2021/06/21 06:37:26;;;;;;;3.80;3.20;;;;;;;20.60;61.64;100249.44;5050686;28;20474;-66
2021/06/21 06:39:52;;;;;;;3.43;2.90;;;;;;;21.47;58.70;100248.53;5051817;28;20700;-66
2021/06/21 06:42:17;;;;;;;3.20;2.90;;;;;;;21.47;58.36;100245.88;5057547;28;20177;-66
2021/06/21 06:44:42;;;;;;;3.50;3.20;;;;;;;19.67;64.09;100231.75;5049590;28;20201;-68
2021/06/21 06:47:08;;;;;;;3.80;3.50;;;;;;;19.64;65.31;100225.72;5039985;28;20206;-66
2021/06/21 06:49:33;;;;;;;5.50;3.20;;;;;;;19.97;63.62;100222.75;5054803;28;20215;-67
2021/06/21 06:51:58;;;;;;;3.87;3.57;;;;;;;20.50;62.46;100238.34;5057522;28;20180;-68
2021/06/21 06:54:45;;;;;;;3.50;3.20;;;;;;;20.93;60.53;100229.59;5069442;28;20180;-68
2021/06/21 06:57:11;;;;;;;4.60;3.03;;;;;;;20.54;61.60;100241.75;5052587;28;20250;-67
2021/06/21 06:59:38;;;;;;;6.20;5.60;;;;;;;19.48;65.26;100239.50;5048000;28;20865;-68
2021/06/21 07:02:11;;;;;;;5.80;5.37;;;;;;;18.84;66.63;100238.06;5036968;28;20220;-66
2021/06/21 07:04:37;;;;;;;4.60;3.50;;;;;;;18.68;68.05;100237.69;5041063;28;20448;-69
2021/06/21 07:07:03;;;;;;;5.50;3.77;;;;;;;20.11;63.60;100244.28;5037328;28;20392;-69
2021/06/21 07:09:30;;;;;;;3.77;3.37;;;;;;;20.60;62.30;100251.22;5042112;28;20178;-67
2021/06/21 07:11:56;;;;;;;4.13;3.40;;;;;;;21.19;59.65;100253.22;5043321;28;20426;-65
2021/06/21 07:14:21;;;;;;;4.73;3.37;;;;;;;19.72;64.83;100278.34;5039625;28;20902;-66
2021/06/21 07:16:47;;;;;;;4.33;3.30;;;;;;;19.26;66.48;100300.16;5037057;28;20245;-66
2021/06/21 07:19:14;;;;;;;6.57;4.07;;;;;;;18.34;69.08;100303.88;5038300;28;20269;-66
2021/06/21 07:21:40;;;;;;;3.40;3.10;;;;;;;18.61;68.77;100293.41;5037451;28;20826;-66
2021/06/21 07:24:06;;;;;;;4.50;3.00;;;;;;;19.75;65.42;100283.50;5038568;28;20427;-66
2021/06/21 07:26:31;;;;;;;5.70;2.90;;;;;;;20.74;61.87;100271.91;5036748;28;20171;-65
2021/06/21 07:28:57;;;;;;;5.30;3.80;;;;;;;20.68;62.45;100270.31;5040611;28;20757;-66
2021/06/21 07:31:22;;;;;;;7.30;3.70;;;;;;;20.50;62.85;100269.28;5037020;28;20552;-65
2021/06/21 07:33:47;;;;;;;4.37;3.70;;;;;;;21.29;60.22;100274.06;5038839;28;20190;-66
2021/06/21 07:36:13;;;;;;;5.53;3.83;;;;;;;21.47;59.71;100270.63;5037008;28;20252;-66
2021/06/21 07:38:40;;;;;;;8.70;7.80;;;;;;;21.23;60.97;100266.34;5036687;28;20596;-65
2021/06/21 07:41:06;;;;;;;6.50;4.27;;;;;;;20.34;63.25;100269.00;5040178;28;20182;-66
2021/06/21 07:43:31;;;;;;;7.30;4.20;;;;;;;20.73;62.16;100268.41;5040526;28;20451;-65
2021/06/21 07:45:57;;;;;;;3.70;2.97;;;;;;;21.78;58.93;100268.44;5040697;28;20254;-66
2021/06/21 07:48:22;;;;;;;7.20;3.43;;;;;;;20.43;63.27;100273.94;5040865;28;20245;-65
2021/06/21 07:50:47;;;;;;;8.17;3.27;;;;;;;21.33;60.62;100284.44;5041989;28;20477;-67
2021/06/21 07:53:13;;;;;;;4.37;3.53;;;;;;;21.56;59.50;100293.25;5062935;28;20195;-67
2021/06/21 07:55:38;;;;;;;3.70;3.40;;;;;;;21.26;60.28;100309.50;5052665;28;20185;-66
2021/06/21 07:58:03;;;;;;;4.67;3.30;;;;;;;21.11;61.24;100307.50;5040158;28;20296;-67
2021/06/21 08:00:29;;;;;;;3.60;3.10;;;;;;;19.35;67.43;100317.50;5040087;28;20217;-67
2021/06/21 08:02:55;;;;;;;3.20;2.90;;;;;;;19.52;67.34;100306.31;5044242;28;20249;-68
2021/06/21 08:05:22;;;;;;;3.50;3.20;;;;;;;19.81;66.23;100309.78;5041693;28;20205;-69
2021/06/21 08:07:48;;;;;;;7.73;7.07;;;;;;;19.62;67.21;100309.50;5040379;28;20861;-66
2021/06/21 08:10:14;;;;;;;2.90;2.70;;;;;;;19.31;68.14;100314.06;5040056;28;20416;-66
2021/06/21 08:12:41;;;;;;;3.53;3.23;;;;;;;19.05;68.59;100314.94;5039163;28;20544;-64
2021/06/21 08:15:07;;;;;;;6.40;5.50;;;;;;;20.36;63.97;100307.75;5042352;28;20453;-66
2021/06/21 08:17:33;;;;;;;4.43;3.93;;;;;;;19.37;67.09;100313.00;5040416;28;20464;-65
2021/06/21 08:19:58;;;;;;;5.47;4.97;;;;;;;19.58;66.72;100303.47;5041531;28;20489;-66
2021/06/21 08:22:24;;;;;;;4.03;3.73;;;;;;;19.09;68.57;100306.00;5059875;28;20253;-67
2021/06/21 08:24:50;;;;;;;4.00;3.60;;;;;;;19.22;69.03;100309.09;5050179;28;20540;-66
2021/06/21 08:27:16;;;;;;;4.13;3.73;;;;;;;19.14;68.61;100309.34;5039940;28;20170;-66
2021/06/21 08:29:42;;;;;;;3.30;3.03;;;;;;;19.14;68.90;100306.69;5038775;28;20427;-66
2021/06/21 08:32:07;;;;;;;6.13;3.63;;;;;;;18.93;69.67;100299.47;5040196;28;20403;-66
2021/06/21 08:34:33;;;;;;;3.00;2.80;;;;;;;19.23;68.40;100302.91;5040920;28;20206;-65
2021/06/21 08:36:58;;;;;;;5.40;3.60;;;;;;;19.38;68.41;100303.31;5056104;28;20225;-66
2021/06/21 08:39:23;;;;;;;3.20;3.00;;;;;;;18.99;69.42;100304.56;5055730;28;20544;-66
2021/06/21 08:41:49;;;;;;;3.80;2.97;;;;;;;19.04;69.00;100301.75;5039299;28;20189;-64
2021/06/21 08:44:14;;;;;;;3.30;2.90;;;;;;;18.90;70.24;100312.78;5054107;28;20189;-64
2021/06/21 08:46:41;;;;;;;3.50;3.10;;;;;;;19.04;70.35;100307.03;5043271;28;20259;-64
2021/06/21 08:49:07;;;;;;;11.20;3.07;;;;;;;18.96;70.17;100299.38;5039327;28;20174;-65
2021/06/21 08:51:35;;;;;;;3.30;3.00;;;;;;;18.96;70.19;100305.53;5039569;28;20941;-63
2021/06/21 08:54:01;;;;;;;3.00;2.80;;;;;;;18.64;71.50;100317.91;5042578;28;20720;-63
2021/06/21 08:56:26;;;;;;;5.30;3.00;;;;;;;19.01;70.87;100310.66;5040275;28;20453;-64
2021/06/21 08:58:51;;;;;;;2.43;2.23;;;;;;;18.94;70.23;100303.84;5040385;28;20229;-66
2021/06/21 09:01:17;;;;;;;3.57;3.30;;;;;;;18.89;69.94;100309.28;5046673;28;20457;-65
2021/06/21 09:03:42;;;;;;;2.97;2.77;;;;;;;19.12;69.81;100307.66;5058974;28;20288;-64
2021/06/21 09:06:19;;;;;;;3.23;2.93;;;;;;;18.93;70.28;100313.56;5058319;28;20199;-64
2021/06/21 09:08:55;;;;;;;2.93;2.73;;;;;;;18.66;71.26;100318.75;5051619;28;20228;-63
2021/06/21 09:11:54;;;;;;;2.70;2.50;;;;;;;18.52;71.73;100305.97;5048179;28;20466;-64
2021/06/21 09:14:25;;;;;;;2.90;2.60;;;;;;;18.59;71.87;100317.22;5052669;28;20451;-64
2021/06/21 09:16:55;;;;;;;25.37;14.73;;;;;;;18.79;71.23;100302.53;5056981;28;20845;-64
2021/06/21 09:19:21;;;;;;;3.43;2.60;;;;;;;18.68;71.55;100303.72;5039948;28;20415;-65
2021/06/21 09:21:46;;;;;;;2.50;2.30;;;;;;;18.60;71.17;100299.59;5038935;28;20413;-66
2021/06/21 09:24:15;;;;;;;3.50;3.20;;;;;;;18.84;70.83;100287.41;5041500;28;20443;-65
2021/06/21 09:26:40;;;;;;;3.00;2.60;;;;;;;19.01;69.35;100292.16;5038770;28;20171;-64
2021/06/21 09:29:06;;;;;;;2.80;2.60;;;;;;;18.85;70.19;100287.34;5039303;28;20671;-64
2021/06/21 09:31:51;;;;;;;2.50;2.30;;;;;;;18.98;69.50;100286.97;5038671;28;20210;-64
2021/06/21 09:34:18;;;;;;;2.80;2.60;;;;;;;19.07;69.64;100286.69;5038186;28;20544;-65
2021/06/21 09:36:44;;;;;;;3.20;3.00;;;;;;;18.49;71.71;100290.22;5037489;28;20439;-65
2021/06/21 09:39:28;;;;;;;3.57;3.30;;;;;;;19.08;69.52;100285.78;5050604;28;20450;-67
2021/06/21 09:42:29;;;;;;;3.70;3.40;;;;;;;18.61;71.57;100282.84;5038557;28;20174;-65
2021/06/21 09:44:56;;;;;;;3.33;3.00;;;;;;;19.02;70.46;100278.03;5053021;28;20435;-64
2021/06/21 09:47:36;;;;;;;3.97;3.57;;;;;;;19.01;70.07;100284.22;5058081;28;20430;-63
2021/06/21 09:50:17;;;;;;;3.13;2.83;;;;;;;18.82;70.69;100286.56;5049032;28;20768;-63
2021/06/21 09:52:52;;;;;;;3.27;3.07;;;;;;;19.18;69.38;100283.69;5041084;28;20411;-63
2021/06/21 09:55:20;;;;;;;2.90;2.70;;;;;;;19.05;69.77;100291.16;5048779;28;20477;-63
2021/06/21 09:58:02;;;;;;;3.47;3.27;;;;;;;19.23;70.01;100296.72;5057457;28;20576;-61
2021/06/21 10:00:27;;;;;;;3.93;3.63;;;;;;;18.99;70.45;100289.56;5058249;28;20397;-63
2021/06/21 10:03:11;;;;;;;3.90;3.50;;;;;;;19.40;69.26;100293.53;5055590;28;20705;-63
2021/06/21 10:05:40;;;;;;;3.90;3.60;;;;;;;18.93;70.34;100295.06;5044964;28;20197;-63
2021/06/21 10:08:07;;;;;;;4.13;3.83;;;;;;;19.31;69.45;100292.94;5055531;28;20440;-62
2021/06/21 10:10:34;;;;;;;3.20;2.90;;;;;;;19.47;69.08;100284.47;5021243;28;20415;-63
2021/06/21 10:12:59;;;;;;;3.37;3.17;;;;;;;19.55;68.59;100281.56;5046813;28;20411;-62
2021/06/21 10:15:25;;;;;;;2.70;2.40;;;;;;;18.50;71.34;100291.94;5046424;28;20411;-63
2021/06/21 10:17:50;;;;;;;4.60;2.77;;;;;;;19.46;68.81;100280.13;5037766;28;20201;-63
2021/06/21 10:20:16;;;;;;;3.20;3.00;;;;;;;19.59;68.09;100277.88;5037080;28;20289;-63
2021/06/21 10:22:42;;;;;;;2.80;2.60;;;;;;;19.37;68.34;100289.22;5038016;28;20399;-64
2021/06/21 10:25:08;;;;;;;2.87;2.67;;;;;;;19.56;67.62;100283.28;5038104;28;20178;-64
2021/06/21 10:27:37;;;;;;;2.80;2.60;;;;;;;19.30;69.44;100287.69;5038302;28;20224;-64
2021/06/21 10:30:03;;;;;;;2.90;2.70;;;;;;;19.48;67.96;100287.06;5041412;28;20402;-64
2021/06/21 10:32:29;;;;;;;3.20;2.90;;;;;;;19.29;68.85;100286.81;5057404;28;20446;-63
2021/06/21 10:34:54;;;;;;;3.07;2.77;;;;;;;19.30;69.70;100290.34;5052411;28;20402;-64
2021/06/21 10:37:22;;;;;;;2.80;2.60;;;;;;;19.36;68.93;100287.47;5039091;28;20508;-64
2021/06/21 10:39:50;;;;;;;2.80;2.60;;;;;;;19.07;69.55;100289.31;5037163;28;20189;-65
2021/06/21 10:42:19;;;;;;;5.53;5.10;;;;;;;19.74;68.00;100295.00;5037341;28;20720;-65
2021/06/21 10:44:55;;;;;;;2.90;2.70;;;;;;;20.16;67.10;100291.72;5040180;28;20407;-65
2021/06/21 10:47:29;;;;;;;2.90;2.70;;;;;;;19.93;66.60;100285.53;5056149;28;20663;-64
2021/06/21 10:49:57;;;;;;;4.77;4.37;;;;;;;19.69;67.99;100288.09;5056726;28;20566;-66
2021/06/21 10:52:49;;;;;;;3.30;3.00;;;;;;;19.40;66.96;100293.53;5047369;28;20867;-64
2021/06/21 10:55:24;;;;;;;4.07;3.30;;;;;;;19.55;67.14;100292.13;5040969;28;20685;-64
2021/06/21 10:57:57;;;;;;;2.97;2.77;;;;;;;19.35;68.30;100296.34;5036937;28;20472;-63
2021/06/21 11:00:37;;;;;;;3.37;3.17;;;;;;;19.42;68.04;100313.72;5037696;28;20442;-65
2021/06/21 11:03:04;;;;;;;4.30;3.50;;;;;;;19.31;68.58;100305.28;5041621;28;20417;-64
2021/06/21 11:05:41;;;;;;;5.30;4.63;;;;;;;19.83;67.65;100308.78;5042176;28;20498;-65
2021/06/21 11:08:21;;;;;;;4.40;3.90;;;;;;;19.58;68.59;100305.25;5055077;28;20430;-65
2021/06/21 11:10:48;;;;;;;4.67;3.60;;;;;;;19.22;69.50;100316.16;5036890;28;20477;-65
2021/06/21 11:13:35;;;;;;;6.40;5.20;;;;;;;19.28;68.28;100316.84;5040301;28;20492;-66
2021/06/21 11:16:24;;;;;;;5.10;3.33;;;;;;;19.61;67.60;100323.66;5049868;28;20848;-65
2021/06/21 11:19:22;;;;;;;7.70;6.97;;;;;;;19.69;67.91;100313.69;5048599;28;20454;-65
2021/06/21 11:21:50;;;;;;;4.83;4.43;;;;;;;19.69;67.36;100311.88;5042020;28;20419;-65
2021/06/21 11:24:46;;;;;;;5.30;3.40;;;;;;;19.43;68.51;100311.91;5042536;28;20468;-64
2021/06/21 11:27:17;;;;;;;4.50;3.00;;;;;;;19.99;67.09;100310.88;5041103;28;20408;-65
2021/06/21 11:29:44;;;;;;;7.50;6.37;;;;;;;19.92;66.45;100301.47;5043752;28;20464;-65